Time;durP1;ratioP1;P1;durP2;ratioP2;P2;SDS_P1;SDS_P2;PMS_P1;PMS_P2;Temp;Humidity;BMP_temperature;BMP_pressure;BME280_temperature;BME280_humidity;BME280_pressure;Samples;Min_cycle;Max_cycle;Signal;HPM_P1;HPM_P2
2023/09/29 00:01:41;;;;;;;0.00;0.00;;;23.40;99.90;;;;;;5034427;28;20512;-78
2023/09/29 00:04:08;;;;;;;0.00;0.00;;;23.40;99.90;;;;;;5038447;28;20405;-77
2023/09/29 00:06:34;;;;;;;0.00;0.00;;;23.40;99.90;;;;;;5041785;28;20403;-77
2023/09/29 00:09:06;;;;;;;0.00;0.00;;;23.40;99.90;;;;;;5025356;28;21043;-77
2023/09/29 00:11:33;;;;;;;0.00;0.00;;;23.50;99.90;;;;;;5036952;28;20477;-78
2023/09/29 00:13:59;;;;;;;0.00;0.00;;;23.50;99.90;;;;;;5039449;28;20415;-77
2023/09/29 00:16:26;;;;;;;0.00;0.00;;;23.40;99.90;;;;;;5035820;28;20424;-77
2023/09/29 00:18:52;;;;;;;0.00;0.00;;;23.50;99.90;;;;;;5051407;28;20488;-77
2023/09/29 00:21:19;;;;;;;0.00;0.00;;;23.50;99.90;;;;;;5053481;28;20758;-78
2023/09/29 00:23:45;;;;;;;0.00;0.00;;;23.50;99.90;;;;;;5036322;28;20439;-78
2023/09/29 00:26:11;;;;;;;0.00;0.00;;;23.50;99.90;;;;;;5031823;28;20407;-78
2023/09/29 00:28:40;;;;;;;0.00;0.00;;;23.50;99.90;;;;;;5063567;28;20429;-77
2023/09/29 00:31:08;;;;;;;0.00;0.00;;;23.50;99.90;;;;;;5025764;28;20422;-78
2023/09/29 01:28:50;;;;;;;0.00;0.00;;;22.70;99.90;;;;;;5097514;27;20439;-78
2023/09/29 01:31:16;;;;;;;0.00;0.00;;;22.70;99.90;;;;;;5057839;28;20411;-77
2023/09/29 01:33:43;;;;;;;0.00;0.00;;;22.70;99.90;;;;;;5073248;28;20420;-77
2023/09/29 01:36:09;;;;;;;0.00;0.00;;;22.70;99.90;;;;;;5100268;27;20409;-77
2023/09/29 01:38:36;;;;;;;0.00;0.00;;;22.70;99.90;;;;;;5064371;28;20413;-77
2023/09/29 01:41:02;;;;;;;0.00;0.00;;;22.70;99.90;;;;;;5069083;28;20434;-80
2023/09/29 01:43:28;;;;;;;0.00;0.00;;;22.70;99.90;;;;;;5069588;28;20415;-79
2023/09/29 01:45:55;;;;;;;0.00;0.00;;;22.80;99.90;;;;;;5068136;28;20745;-79
2023/09/29 01:48:21;;;;;;;0.00;0.00;;;22.80;99.90;;;;;;5096070;28;20424;-79
2023/09/29 01:50:47;;;;;;;0.00;0.00;;;22.80;99.90;;;;;;5061218;28;20416;-80
2023/09/29 01:53:14;;;;;;;0.00;0.00;;;22.80;99.90;;;;;;5058619;28;21316;-80
2023/09/29 01:55:40;;;;;;;0.00;0.00;;;22.70;99.90;;;;;;5081186;28;20402;-80
2023/09/29 01:58:07;;;;;;;0.00;0.00;;;22.70;99.90;;;;;;5067833;28;20420;-80
2023/09/29 02:00:33;;;;;;;0.00;0.00;;;22.70;99.90;;;;;;5069912;28;20452;-80
2023/09/29 02:03:08;;;;;;;0.00;0.00;;;22.80;99.90;;;;;;5102842;27;20423;-79
2023/09/29 02:05:35;;;;;;;0.00;0.00;;;22.80;99.90;;;;;;5080325;28;20921;-79
2023/09/29 02:08:05;;;;;;;0.00;0.00;;;22.70;99.90;;;;;;5070741;28;21256;-79
2023/09/29 02:10:31;;;;;;;0.00;0.00;;;22.70;99.90;;;;;;5095429;28;20895;-80
2023/09/29 02:12:59;;;;;;;0.00;0.00;;;22.70;99.90;;;;;;5079672;28;20500;-80
2023/09/29 02:15:31;;;;;;;0.00;0.00;;;22.80;99.90;;;;;;5069667;28;20414;-80
2023/09/29 02:17:58;;;;;;;0.00;0.00;;;22.80;99.90;;;;;;5071110;28;20920;-80
2023/09/29 02:20:30;;;;;;;0.00;0.00;;;22.70;99.90;;;;;;5069782;28;20562;-80
2023/09/29 02:23:02;;;;;;;0.00;0.00;;;22.80;99.90;;;;;;5056579;28;20413;-80
2023/09/29 02:25:29;;;;;;;0.00;0.00;;;22.80;99.90;;;;;;5071763;28;20460;-80
2023/09/29 02:27:58;;;;;;;0.00;0.00;;;22.80;99.90;;;;;;5056740;28;20917;-80
2023/09/29 02:30:26;;;;;;;0.00;0.00;;;22.80;99.90;;;;;;5072365;28;20400;-80
2023/09/29 02:32:53;;;;;;;0.00;0.00;;;22.80;99.90;;;;;;5065240;28;20518;-80
2023/09/29 02:35:20;;;;;;;0.00;0.00;;;22.70;99.90;;;;;;5059381;28;20402;-80
2023/09/29 02:37:48;;;;;;;0.00;0.00;;;22.70;99.90;;;;;;5076040;28;20411;-80
2023/09/29 02:40:15;;;;;;;0.00;0.00;;;22.70;99.90;;;;;;5045822;28;20409;-80
2023/09/29 02:42:46;;;;;;;0.00;0.00;;;22.70;99.90;;;;;;5038776;28;20422;-80
2023/09/29 02:45:14;;;;;;;0.00;0.00;;;22.80;99.90;;;;;;5042457;28;20853;-80
2023/09/29 02:47:42;;;;;;;0.00;0.00;;;22.60;99.90;;;;;;5055774;28;20443;-80
2023/09/29 02:50:12;;;;;;;0.00;0.00;;;22.60;99.90;;;;;;5043060;28;20493;-79
2023/09/29 02:52:40;;;;;;;0.00;0.00;;;22.60;99.90;;;;;;5045812;28;20473;-79
2023/09/29 02:55:12;;;;;;;0.00;0.00;;;22.60;99.90;;;;;;5086606;28;20435;-79
2023/09/29 02:57:42;;;;;;;0.00;0.00;;;22.60;99.90;;;;;;5092505;27;20415;-79
2023/09/29 03:00:21;;;;;;;0.00;0.00;;;22.60;99.90;;;;;;5039137;28;20415;-79
2023/09/29 03:02:48;;;;;;;0.00;0.00;;;22.60;99.90;;;;;;5065738;28;20456;-79
2023/09/29 03:05:16;;;;;;;0.00;0.00;;;22.50;99.90;;;;;;5056772;28;20421;-79
2023/09/29 03:07:43;;;;;;;0.00;0.00;;;22.50;99.90;;;;;;5050753;28;20515;-78
2023/09/29 03:10:14;;;;;;;0.00;0.00;;;22.50;99.90;;;;;;5081436;28;20989;-79
2023/09/29 03:12:43;;;;;;;0.00;0.00;;;22.60;99.90;;;;;;5057678;28;20489;-79
2023/09/29 03:15:12;;;;;;;0.00;0.00;;;22.60;99.90;;;;;;5059767;28;20489;-79
2023/09/29 03:17:38;;;;;;;0.00;0.00;;;22.60;99.90;;;;;;5060959;28;20456;-79
2023/09/29 03:20:14;;;;;;;0.00;0.00;;;22.60;99.90;;;;;;5062021;28;20481;-79
2023/09/29 03:22:44;;;;;;;0.00;0.00;;;22.60;99.90;;;;;;5056559;28;20504;-79
2023/09/29 03:25:20;;;;;;;0.00;0.00;;;22.60;99.90;;;;;;5066542;28;20409;-79
2023/09/29 03:27:48;;;;;;;0.00;0.00;;;22.50;99.90;;;;;;5056044;28;20447;-79
2023/09/29 03:30:15;;;;;;;0.00;0.00;;;22.50;99.90;;;;;;5047868;28;20409;-79
2023/09/29 03:32:44;;;;;;;0.00;0.00;;;22.40;99.90;;;;;;5059626;28;20420;-79
2023/09/29 03:35:10;;;;;;;0.00;0.00;;;22.40;99.90;;;;;;5053311;28;20494;-79
2023/09/29 03:37:38;;;;;;;0.00;0.00;;;22.30;99.90;;;;;;5059740;28;20419;-79
2023/09/29 03:40:13;;;;;;;0.00;0.00;;;22.40;99.90;;;;;;5088290;28;20480;-79
2023/09/29 03:42:42;;;;;;;0.00;0.00;;;22.40;99.90;;;;;;5069189;28;20475;-79
2023/09/29 03:45:11;;;;;;;0.00;0.00;;;22.50;99.90;;;;;;5054693;28;20415;-79
2023/09/29 03:47:37;;;;;;;0.00;0.00;;;22.40;99.90;;;;;;5048049;28;20721;-79
2023/09/29 03:50:11;;;;;;;0.00;0.00;;;22.30;99.90;;;;;;5051798;28;20436;-79
2023/09/29 03:52:39;;;;;;;0.00;0.00;;;22.30;99.90;;;;;;5060113;28;21125;-79
2023/09/29 03:55:06;;;;;;;0.00;0.00;;;22.30;99.90;;;;;;5041428;28;20514;-79
2023/09/29 03:57:34;;;;;;;0.00;0.00;;;22.40;99.90;;;;;;5037168;28;20514;-79
2023/09/29 04:00:00;;;;;;;0.00;0.00;;;22.40;99.90;;;;;;5044153;28;20420;-79
2023/09/29 04:02:27;;;;;;;0.00;0.00;;;22.40;99.90;;;;;;5068552;28;20415;-79
2023/09/29 04:04:53;;;;;;;0.00;0.00;;;22.40;99.90;;;;;;5055908;28;20910;-80
2023/09/29 04:07:20;;;;;;;0.00;0.00;;;22.40;99.90;;;;;;5045696;28;20532;-79
2023/09/29 04:09:46;;;;;;;0.00;0.00;;;22.40;99.90;;;;;;5062493;28;20448;-79
2023/09/29 04:12:13;;;;;;;0.00;0.00;;;22.50;99.90;;;;;;5053778;28;20497;-79
2023/09/29 04:14:39;;;;;;;0.00;0.00;;;22.50;99.90;;;;;;5049459;28;20421;-79
2023/09/29 04:17:05;;;;;;;0.00;0.00;;;22.40;99.90;;;;;;5056982;28;20782;-79
2023/09/29 04:19:32;;;;;;;0.00;0.00;;;22.40;99.90;;;;;;5041565;28;20416;-79
2023/09/29 04:21:59;;;;;;;0.00;0.00;;;22.40;99.90;;;;;;5050973;28;20494;-79
2023/09/29 04:24:27;;;;;;;0.00;0.00;;;22.40;99.90;;;;;;5063762;28;20507;-80
2023/09/29 04:26:54;;;;;;;0.00;0.00;;;22.40;99.90;;;;;;5038108;28;20420;-79
2023/09/29 04:29:20;;;;;;;0.00;0.00;;;22.50;99.90;;;;;;5070292;28;20407;-79
2023/09/29 04:31:46;;;;;;;0.00;0.00;;;22.50;99.90;;;;;;5048518;28;20588;-79
2023/09/29 04:34:13;;;;;;;0.00;0.00;;;22.50;99.90;;;;;;5053608;28;20421;-79
2023/09/29 04:36:41;;;;;;;0.00;0.00;;;22.50;99.90;;;;;;5052137;28;20415;-79
2023/09/29 04:39:08;;;;;;;0.00;0.00;;;22.50;99.90;;;;;;5057017;28;20448;-79
2023/09/29 04:41:34;;;;;;;0.00;0.00;;;22.50;99.90;;;;;;5054028;28;20502;-79
2023/09/29 04:44:00;;;;;;;0.00;0.00;;;22.50;99.90;;;;;;5054674;28;20409;-79
2023/09/29 04:46:26;;;;;;;0.00;0.00;;;22.50;99.90;;;;;;5058521;28;20424;-79
2023/09/29 04:48:54;;;;;;;0.00;0.00;;;22.50;99.90;;;;;;5047768;28;20416;-79
2023/09/29 04:51:20;;;;;;;0.00;0.00;;;22.60;99.90;;;;;;5033091;28;20919;-79
2023/09/29 04:53:46;;;;;;;0.00;0.00;;;22.60;99.90;;;;;;5054039;28;20473;-79
2023/09/29 04:56:13;;;;;;;0.00;0.00;;;22.60;99.90;;;;;;5034532;28;20465;-80
2023/09/29 04:58:39;;;;;;;0.00;0.00;;;22.60;99.90;;;;;;5058071;28;20427;-78
2023/09/29 05:01:05;;;;;;;0.00;0.00;;;22.60;99.90;;;;;;5075686;28;20416;-80
2023/09/29 05:03:34;;;;;;;0.00;0.00;;;22.60;99.90;;;;;;5056515;28;21011;-80
2023/09/29 05:06:00;;;;;;;0.00;0.00;;;22.60;99.90;;;;;;5054962;28;21056;-80
2023/09/29 05:08:26;;;;;;;0.00;0.00;;;22.60;99.90;;;;;;5058713;28;20947;-80
2023/09/29 05:10:53;;;;;;;0.00;0.00;;;22.60;99.90;;;;;;5060915;28;20420;-81
2023/09/29 05:13:19;;;;;;;0.00;0.00;;;22.70;99.90;;;;;;5061940;28;20812;-80
2023/09/29 05:15:46;;;;;;;0.00;0.00;;;22.70;99.90;;;;;;5082005;27;20506;-81
2023/09/29 05:18:12;;;;;;;0.00;0.00;;;22.70;99.90;;;;;;5039915;28;20995;-81
2023/09/29 05:20:38;;;;;;;0.00;0.00;;;22.70;99.90;;;;;;5063209;28;21103;-81
2023/09/29 05:23:05;;;;;;;0.00;0.00;;;22.70;99.90;;;;;;5072233;28;20459;-81
2023/09/29 05:25:31;;;;;;;0.00;0.00;;;22.80;99.90;;;;;;5039447;28;20495;-81
2023/09/29 05:27:57;;;;;;;0.00;0.00;;;22.80;99.90;;;;;;5072313;28;20507;-81
2023/09/29 05:30:24;;;;;;;0.00;0.00;;;22.80;99.90;;;;;;5045541;28;20418;-82
2023/09/29 05:32:50;;;;;;;0.00;0.00;;;22.80;99.90;;;;;;5056655;28;20935;-82
2023/09/29 05:35:16;;;;;;;0.00;0.00;;;22.90;99.90;;;;;;5073698;28;20442;-81
2023/09/29 05:37:42;;;;;;;0.00;0.00;;;23.00;99.90;;;;;;5079728;28;20525;-81
2023/09/29 05:40:09;;;;;;;0.00;0.00;;;23.00;99.90;;;;;;5046667;28;20420;-81
2023/09/29 05:42:36;;;;;;;0.00;0.00;;;23.00;99.90;;;;;;5058087;28;21072;-80
2023/09/29 05:45:02;;;;;;;0.00;0.00;;;23.10;99.90;;;;;;5058528;28;20488;-80
2023/09/29 05:47:28;;;;;;;0.00;0.00;;;23.10;99.90;;;;;;5085350;28;20424;-81
2023/09/29 05:49:55;;;;;;;0.00;0.00;;;23.10;99.90;;;;;;5063499;28;20415;-81
2023/09/29 05:52:21;;;;;;;0.00;0.00;;;23.20;99.90;;;;;;5079000;28;20510;-81
2023/09/29 05:54:47;;;;;;;0.00;0.00;;;23.20;99.90;;;;;;5052254;28;20445;-81
2023/09/29 05:57:13;;;;;;;0.00;0.00;;;23.20;99.90;;;;;;5051144;28;20481;-80
2023/09/29 05:59:40;;;;;;;0.00;0.00;;;23.30;99.90;;;;;;5062766;28;20409;-80
2023/09/29 06:02:06;;;;;;;0.00;0.00;;;23.30;99.90;;;;;;5082821;28;21043;-80
2023/09/29 06:04:32;;;;;;;0.00;0.00;;;23.30;99.90;;;;;;5076552;28;20924;-79
2023/09/29 06:06:58;;;;;;;0.00;0.00;;;23.30;99.90;;;;;;5055663;28;20412;-80
2023/09/29 06:09:26;;;;;;;0.00;0.00;;;23.30;99.90;;;;;;5058825;28;20503;-80
2023/09/29 06:11:52;;;;;;;0.00;0.00;;;23.40;99.90;;;;;;5044967;28;20408;-79
2023/09/29 06:14:18;;;;;;;0.00;0.00;;;23.40;99.90;;;;;;5072433;28;20567;-80
2023/09/29 06:16:44;;;;;;;0.00;0.00;;;23.40;99.90;;;;;;5080749;28;20456;-80
2023/09/29 06:19:11;;;;;;;0.00;0.00;;;23.40;99.90;;;;;;5086916;28;20516;-82
2023/09/29 06:21:37;;;;;;;0.00;0.00;;;23.50;99.90;;;;;;5063478;28;20426;-78
2023/09/29 06:24:04;;;;;;;0.00;0.00;;;23.50;99.90;;;;;;5043830;28;20403;-80
2023/09/29 06:26:31;;;;;;;0.00;0.00;;;23.60;99.90;;;;;;5063905;28;20489;-80
2023/09/29 06:28:57;;;;;;;0.00;0.00;;;23.60;99.90;;;;;;5061737;28;20565;-79
2023/09/29 06:31:23;;;;;;;0.00;0.00;;;23.70;99.90;;;;;;5073771;28;21185;-80
2023/09/29 06:33:50;;;;;;;0.00;0.00;;;23.70;99.90;;;;;;5064455;28;20444;-80
2023/09/29 06:36:16;;;;;;;0.00;0.00;;;23.80;99.90;;;;;;5089327;27;21153;-79
2023/09/29 06:38:42;;;;;;;0.00;0.00;;;23.80;99.90;;;;;;5045160;28;20418;-78
2023/09/29 06:41:08;;;;;;;0.00;0.00;;;23.90;99.90;;;;;;5064560;28;20404;-78
2023/09/29 06:43:35;;;;;;;0.00;0.00;;;24.00;99.90;;;;;;5062425;28;20418;-79
2023/09/29 06:46:01;;;;;;;0.00;0.00;;;24.00;99.90;;;;;;5063974;28;20410;-79
2023/09/29 06:48:28;;;;;;;0.00;0.00;;;24.00;99.90;;;;;;5061621;28;20396;-79
2023/09/29 06:50:59;;;;;;;0.00;0.00;;;24.00;99.90;;;;;;5063550;28;20404;-79
2023/09/29 06:53:27;;;;;;;0.00;0.00;;;24.10;99.90;;;;;;5064197;28;20402;-79
2023/09/29 06:55:54;;;;;;;0.00;0.00;;;24.10;99.90;;;;;;5074438;28;20490;-79
2023/09/29 06:58:20;;;;;;;0.00;0.00;;;24.10;99.90;;;;;;5058108;28;20420;-81
2023/09/29 07:00:46;;;;;;;0.00;0.00;;;24.20;99.90;;;;;;5053995;28;20411;-82
2023/09/29 07:03:13;;;;;;;0.00;0.00;;;24.20;99.90;;;;;;5092794;27;20414;-81
2023/09/29 07:05:39;;;;;;;0.00;0.00;;;24.20;99.90;;;;;;5055104;28;20454;-80
2023/09/29 07:08:06;;;;;;;0.00;0.00;;;24.30;99.90;;;;;;5034252;28;20463;-82
2023/09/29 07:10:32;;;;;;;0.00;0.00;;;24.30;99.90;;;;;;5054859;28;20422;-79
2023/09/29 07:12:58;;;;;;;0.00;0.00;;;24.40;99.90;;;;;;5055733;28;20526;-79
2023/09/29 07:15:24;;;;;;;0.00;0.00;;;24.40;99.90;;;;;;5068404;28;20454;-79
2023/09/29 07:17:50;;;;;;;0.00;0.00;;;24.50;99.90;;;;;;5071671;28;20501;-79
2023/09/29 07:20:16;;;;;;;0.00;0.00;;;24.50;99.90;;;;;;5045995;28;20418;-79
2023/09/29 07:22:43;;;;;;;0.00;0.00;;;24.50;99.90;;;;;;5072314;28;20537;-80
2023/09/29 07:25:10;;;;;;;0.00;0.00;;;24.50;99.90;;;;;;5072397;28;20411;-80
2023/09/29 07:27:36;;;;;;;0.00;0.00;;;24.60;99.90;;;;;;5052427;28;20500;-79
2023/09/29 07:30:04;;;;;;;0.00;0.00;;;24.60;99.90;;;;;;5054431;28;20407;-79
2023/09/29 07:32:31;;;;;;;0.00;0.00;;;24.60;99.90;;;;;;5067626;28;20423;-79
2023/09/29 07:34:57;;;;;;;0.00;0.00;;;24.70;99.90;;;;;;5073623;28;20414;-79
2023/09/29 07:37:23;;;;;;;0.00;0.00;;;24.70;99.90;;;;;;5042120;28;20432;-78
2023/09/29 07:39:50;;;;;;;0.00;0.00;;;24.70;99.90;;;;;;5057564;28;20415;-79
2023/09/29 07:42:17;;;;;;;0.00;0.00;;;24.70;99.90;;;;;;5042286;28;20421;-79
2023/09/29 07:44:43;;;;;;;0.00;0.00;;;24.80;99.90;;;;;;5055407;28;20439;-79
2023/09/29 07:47:10;;;;;;;0.00;0.00;;;24.80;99.90;;;;;;5037013;28;21150;-79
2023/09/29 07:49:40;;;;;;;0.00;0.00;;;24.90;99.90;;;;;;5059465;28;20471;-79
2023/09/29 07:52:07;;;;;;;0.00;0.00;;;24.90;99.90;;;;;;5054498;28;20413;-78
2023/09/29 07:54:36;;;;;;;0.00;0.00;;;25.00;99.90;;;;;;5055461;28;20422;-78
2023/09/29 07:57:03;;;;;;;0.00;0.00;;;25.00;99.90;;;;;;5087007;28;20515;-78
2023/09/29 07:59:29;;;;;;;0.00;0.00;;;25.00;99.90;;;;;;5056434;28;20467;-78
2023/09/29 08:01:58;;;;;;;0.00;0.00;;;25.10;99.90;;;;;;5053001;28;20411;-79
2023/09/29 08:04:25;;;;;;;0.00;0.00;;;25.10;99.90;;;;;;5060078;28;20922;-79
2023/09/29 08:06:52;;;;;;;0.00;0.00;;;25.10;99.90;;;;;;5060695;28;20410;-79
2023/09/29 08:09:18;;;;;;;0.00;0.00;;;25.20;99.90;;;;;;5071996;28;20434;-79
2023/09/29 08:11:45;;;;;;;0.00;0.00;;;25.20;99.90;;;;;;5038800;28;20409;-81
2023/09/29 08:14:12;;;;;;;0.00;0.00;;;25.20;99.90;;;;;;5084580;27;20496;-79
2023/09/29 08:16:39;;;;;;;0.00;0.00;;;25.30;99.90;;;;;;5067688;28;20404;-79
2023/09/29 08:19:05;;;;;;;0.00;0.00;;;25.30;99.90;;;;;;5069670;28;20460;-78
2023/09/29 08:21:38;;;;;;;0.00;0.00;;;25.40;99.90;;;;;;5059585;28;20928;-80
2023/09/29 08:24:08;;;;;;;0.00;0.00;;;25.40;99.90;;;;;;5040581;28;20497;-80
2023/09/29 08:26:34;;;;;;;0.00;0.00;;;25.40;99.90;;;;;;5054874;28;20831;-79
2023/09/29 08:29:01;;;;;;;0.00;0.00;;;25.50;99.90;;;;;;5042034;28;20520;-80
2023/09/29 08:31:28;;;;;;;0.00;0.00;;;25.50;99.90;;;;;;5039262;28;20501;-80
2023/09/29 08:33:54;;;;;;;0.00;0.00;;;25.60;99.90;;;;;;5053495;28;21117;-79
2023/09/29 08:36:21;;;;;;;0.00;0.00;;;25.60;99.90;;;;;;5070618;28;20804;-81
2023/09/29 08:38:47;;;;;;;0.00;0.00;;;25.60;99.90;;;;;;5081797;28;20429;-80
2023/09/29 08:41:16;;;;;;;0.00;0.00;;;25.70;99.90;;;;;;5064874;28;20852;-80
2023/09/29 08:43:43;;;;;;;0.00;0.00;;;25.70;99.90;;;;;;5072965;28;20881;-80
2023/09/29 08:46:13;;;;;;;0.00;0.00;;;25.70;99.90;;;;;;5069181;28;20435;-80
2023/09/29 08:48:43;;;;;;;0.00;0.00;;;25.80;99.90;;;;;;5072212;28;20420;-80
2023/09/29 08:51:14;;;;;;;0.00;0.00;;;25.80;99.90;;;;;;5062942;28;21220;-80
2023/09/29 08:53:43;;;;;;;0.00;0.00;;;25.90;99.90;;;;;;5045333;28;20408;-80
2023/09/29 08:56:15;;;;;;;0.00;0.00;;;26.00;99.90;;;;;;5089991;28;20413;-81
2023/09/29 08:58:42;;;;;;;0.00;0.00;;;26.00;99.90;;;;;;5058481;28;20419;-80
2023/09/29 09:01:11;;;;;;;0.00;0.00;;;26.00;99.90;;;;;;5043877;28;20481;-80
2023/09/29 09:03:38;;;;;;;0.00;0.00;;;26.00;99.90;;;;;;5041624;28;20403;-81
2023/09/29 09:06:24;;;;;;;0.00;0.00;;;26.10;99.90;;;;;;5045946;28;20411;-80
2023/09/29 09:08:52;;;;;;;0.00;0.00;;;26.10;99.90;;;;;;5051795;28;20430;-79
2023/09/29 09:11:19;;;;;;;0.00;0.00;;;26.20;99.90;;;;;;5064971;28;20417;-80
2023/09/29 09:14:03;;;;;;;0.10;0.10;;;26.30;99.90;;;;;;5079257;28;20442;-80
2023/09/29 09:16:36;;;;;;;0.10;0.10;;;26.30;99.90;;;;;;5077314;28;20413;-81
2023/09/29 09:19:14;;;;;;;0.00;0.00;;;26.40;99.90;;;;;;5050738;28;20504;-80
2023/09/29 09:21:43;;;;;;;0.00;0.00;;;26.60;99.90;;;;;;5048930;28;20463;-80
2023/09/29 09:24:23;;;;;;;0.10;0.10;;;26.70;99.90;;;;;;5088098;27;20415;-80
2023/09/29 09:27:02;;;;;;;0.08;0.08;;;26.80;99.90;;;;;;5064996;28;20453;-80
2023/09/29 09:29:29;;;;;;;0.10;0.10;;;26.90;99.90;;;;;;5013746;28;20421;-79
2023/09/29 09:31:59;;;;;;;0.10;0.10;;;27.00;99.90;;;;;;5036730;28;20414;-79
2023/09/29 09:34:37;;;;;;;0.00;0.00;;;27.10;99.90;;;;;;5017613;28;20541;-81
2023/09/29 09:37:09;;;;;;;0.00;0.00;;;27.20;99.90;;;;;;5036386;28;20591;-80
2023/09/29 09:39:36;;;;;;;0.00;0.00;;;27.30;99.90;;;;;;5056374;28;20872;-79
2023/09/29 09:42:06;;;;;;;0.03;0.03;;;27.40;99.90;;;;;;5054695;28;20412;-80
2023/09/29 09:44:34;;;;;;;0.08;0.08;;;27.50;99.90;;;;;;5050602;28;20413;-81
2023/09/29 09:47:04;;;;;;;0.00;0.00;;;27.60;99.90;;;;;;5021306;28;20409;-80
2023/09/29 09:49:44;;;;;;;0.10;0.10;;;27.70;99.90;;;;;;5052413;28;20417;-80
2023/09/29 09:52:15;;;;;;;0.00;0.00;;;27.80;99.90;;;;;;5051277;28;20568;-80
2023/09/29 09:55:10;;;;;;;0.10;0.10;;;27.90;99.90;;;;;;5037777;28;20882;-80
2023/09/29 09:57:38;;;;;;;0.00;0.00;;;28.10;99.90;;;;;;5069190;28;21321;-81
2023/09/29 10:00:08;;;;;;;0.00;0.00;;;28.20;99.90;;;;;;5068187;28;20413;-80
2023/09/29 10:02:49;;;;;;;0.00;0.00;;;28.40;99.90;;;;;;5061168;28;20421;-80
2023/09/29 10:05:23;;;;;;;0.10;0.10;;;28.70;99.90;;;;;;5041352;28;20944;-80
2023/09/29 10:07:55;;;;;;;0.00;0.00;;;28.80;99.90;;;;;;5026531;28;20982;-80
2023/09/29 10:10:33;;;;;;;0.00;0.00;;;29.00;99.90;;;;;;5060552;28;20933;-80
2023/09/29 10:13:06;;;;;;;0.00;0.00;;;29.20;99.90;;;;;;5019206;28;21093;-80
2023/09/29 10:15:35;;;;;;;0.00;0.00;;;29.30;99.90;;;;;;5044065;28;20804;-80
2023/09/29 10:18:18;;;;;;;0.00;0.00;;;29.40;99.90;;;;;;5032037;28;21254;-80
2023/09/29 10:20:50;;;;;;;0.00;0.00;;;29.60;99.90;;;;;;5040168;28;20419;-79
2023/09/29 10:23:17;;;;;;;0.10;0.10;;;29.50;99.90;;;;;;5062376;28;20405;-80
2023/09/29 10:25:59;;;;;;;0.00;0.00;;;29.40;99.90;;;;;;5056114;28;20544;-80
2023/09/29 10:28:39;;;;;;;0.10;0.10;;;29.20;99.90;;;;;;5064778;28;20424;-79
2023/09/29 10:31:17;;;;;;;0.10;0.10;;;29.00;99.90;;;;;;5055489;28;21026;-80
2023/09/29 10:33:52;;;;;;;0.10;0.10;;;28.90;99.90;;;;;;5063653;28;21269;-80
2023/09/29 10:36:28;;;;;;;0.10;0.10;;;29.00;99.90;;;;;;5058460;28;20980;-80
2023/09/29 10:38:59;;;;;;;0.00;0.00;;;29.00;99.90;;;;;;5070414;28;20507;-79
2023/09/29 10:41:31;;;;;;;0.10;0.10;;;29.00;99.90;;;;;;5073999;28;20406;-80
2023/09/29 10:44:00;;;;;;;0.10;0.10;;;28.90;99.90;;;;;;5060487;28;20400;-79
2023/09/29 10:46:28;;;;;;;0.03;0.03;;;28.80;99.90;;;;;;5042031;28;20400;-79
2023/09/29 10:48:55;;;;;;;0.10;0.10;;;28.60;99.90;;;;;;5079023;28;20405;-79
2023/09/29 10:51:31;;;;;;;0.08;0.08;;;28.60;99.90;;;;;;5064746;28;20431;-79
2023/09/29 10:54:07;;;;;;;0.10;0.10;;;28.50;99.90;;;;;;5068934;28;20443;-79
2023/09/29 10:56:36;;;;;;;0.00;0.00;;;28.50;99.90;;;;;;5041874;28;20409;-79
2023/09/29 10:59:07;;;;;;;0.03;0.03;;;28.50;99.90;;;;;;5041007;28;20460;-79
2023/09/29 11:01:35;;;;;;;0.00;0.00;;;28.50;99.90;;;;;;5079196;28;20786;-79
2023/09/29 11:04:08;;;;;;;0.10;0.10;;;28.50;99.90;;;;;;5071486;28;20411;-80
2023/09/29 11:06:46;;;;;;;0.00;0.00;;;28.40;99.90;;;;;;5078563;28;20483;-79
2023/09/29 11:09:22;;;;;;;0.00;0.00;;;28.50;99.90;;;;;;5047979;28;21094;-79
2023/09/29 11:11:48;;;;;;;0.10;0.10;;;28.50;99.90;;;;;;5090190;28;20417;-79
2023/09/29 11:14:14;;;;;;;0.00;0.00;;;28.50;99.90;;;;;;5066898;28;20483;-79
2023/09/29 11:16:41;;;;;;;0.00;0.00;;;28.60;99.90;;;;;;5066258;28;20413;-79
2023/09/29 11:19:15;;;;;;;0.00;0.00;;;28.50;99.90;;;;;;5090403;28;20474;-79
2023/09/29 11:21:42;;;;;;;0.08;0.08;;;28.50;99.90;;;;;;5074521;28;20490;-79
2023/09/29 11:24:14;;;;;;;0.10;0.10;;;28.50;99.90;;;;;;5082873;28;20430;-80
2023/09/29 11:26:42;;;;;;;0.10;0.10;;;28.50;99.90;;;;;;5065065;28;20433;-80
2023/09/29 11:29:24;;;;;;;0.00;0.00;;;28.50;99.90;;;;;;5031163;28;20485;-80
2023/09/29 11:31:55;;;;;;;0.00;0.00;;;28.50;99.90;;;;;;5070057;28;20441;-79
2023/09/29 11:34:22;;;;;;;0.00;0.00;;;28.50;99.90;;;;;;5040373;28;20421;-80
2023/09/29 11:36:50;;;;;;;0.00;0.00;;;28.40;99.90;;;;;;5020363;28;20842;-80
2023/09/29 11:39:19;;;;;;;0.10;0.10;;;28.40;99.90;;;;;;5037707;28;20405;-80
2023/09/29 11:41:46;;;;;;;0.10;0.10;;;28.40;99.90;;;;;;5029275;28;20798;-78
2023/09/29 11:44:18;;;;;;;0.10;0.10;;;28.40;99.90;;;;;;5041150;28;20397;-79
2023/09/29 11:46:45;;;;;;;0.00;0.00;;;28.40;99.90;;;;;;5047003;28;20404;-79
2023/09/29 11:49:12;;;;;;;0.10;0.10;;;28.40;99.90;;;;;;5055289;28;20481;-78
2023/09/29 11:51:38;;;;;;;0.10;0.10;;;28.40;99.90;;;;;;5045588;28;20499;-78
2023/09/29 11:54:05;;;;;;;0.07;0.07;;;28.30;99.90;;;;;;5041060;28;20576;-78
2023/09/29 11:56:31;;;;;;;0.10;0.10;;;28.30;99.90;;;;;;5041802;28;20401;-79
2023/09/29 11:58:58;;;;;;;0.00;0.00;;;28.30;99.90;;;;;;5059284;28;20425;-79
2023/09/29 12:01:26;;;;;;;0.00;0.00;;;28.30;99.90;;;;;;5031876;28;20921;-78
2023/09/29 12:03:53;;;;;;;0.00;0.00;;;28.30;99.90;;;;;;5027629;28;20742;-79
2023/09/29 12:06:19;;;;;;;0.00;0.00;;;28.20;99.90;;;;;;5036609;28;20487;-78
2023/09/29 12:08:45;;;;;;;0.00;0.00;;;28.20;99.90;;;;;;5048023;28;20487;-79
